sensor_id;sensor_type;location;lat;lon;timestamp;pressure;altitude;pressure_sealevel;temperature;humidity
9225;BME280;4647;48.072;11.616;2023-12-28T00:02:26;95532.16;;;3.93;61.11
9225;BME280;4647;48.072;11.616;2023-12-28T00:04:55;95532.56;;;3.68;61.62
9225;BME280;4647;48.072;11.616;2023-12-28T00:07:26;95539.72;;;3.61;62.09
9225;BME280;4647;48.072;11.616;2023-12-28T00:09:54;95537.56;;;3.47;62.35
9225;BME280;4647;48.072;11.616;2023-12-28T00:12:23;95521.31;;;3.36;62.44
9225;BME280;4647;48.072;11.616;2023-12-28T00:14:51;95528.53;;;3.55;61.31
9225;BME280;4647;48.072;11.616;2023-12-28T00:17:20;95529.06;;;3.64;60.85
9225;BME280;4647;48.072;11.616;2023-12-28T00:19:48;95533.56;;;3.83;60.12
9225;BME280;4647;48.072;11.616;2023-12-28T00:22:17;95535.69;;;3.74;60.48
9225;BME280;4647;48.072;11.616;2023-12-28T00:24:48;95527.25;;;3.72;60.50
9225;BME280;4647;48.072;11.616;2023-12-28T00:27:16;95531.22;;;3.55;61.68
9225;BME280;4647;48.072;11.616;2023-12-28T00:29:44;95527.63;;;3.48;62.64
9225;BME280;4647;48.072;11.616;2023-12-28T00:32:13;95518.91;;;3.54;63.25
9225;BME280;4647;48.072;11.616;2023-12-28T00:34:41;95519.78;;;3.35;63.35
9225;BME280;4647;48.072;11.616;2023-12-28T00:37:09;95520.47;;;3.10;64.17
9225;BME280;4647;48.072;11.616;2023-12-28T00:39:38;95522.09;;;3.14;64.04
9225;BME280;4647;48.072;11.616;2023-12-28T00:42:09;95514.31;;;2.86;65.14
9225;BME280;4647;48.072;11.616;2023-12-28T00:44:37;95514.09;;;2.75;66.42
9225;BME280;4647;48.072;11.616;2023-12-28T00:47:07;95506.22;;;2.44;67.38
9225;BME280;4647;48.072;11.616;2023-12-28T00:49:36;95513.75;;;2.38;67.67
9225;BME280;4647;48.072;11.616;2023-12-28T00:52:05;95517.03;;;2.32;67.95
9225;BME280;4647;48.072;11.616;2023-12-28T00:54:35;95528.38;;;2.25;68.08
9225;BME280;4647;48.072;11.616;2023-12-28T00:57:04;95517.81;;;2.32;67.99
9225;BME280;4647;48.072;11.616;2023-12-28T00:59:35;95512.53;;;2.36;67.70
9225;BME280;4647;48.072;11.616;2023-12-28T01:02:04;95521.16;;;2.45;67.15
9225;BME280;4647;48.072;11.616;2023-12-28T01:04:32;95516.56;;;2.45;67.56
9225;BME280;4647;48.072;11.616;2023-12-28T01:07:02;95520.38;;;2.64;67.31
9225;BME280;4647;48.072;11.616;2023-12-28T01:09:31;95516.91;;;2.44;67.86
9225;BME280;4647;48.072;11.616;2023-12-28T01:12:00;95526.31;;;2.19;68.41
9225;BME280;4647;48.072;11.616;2023-12-28T01:14:30;95528.28;;;2.22;67.94
9225;BME280;4647;48.072;11.616;2023-12-28T01:17:01;95536.34;;;2.06;69.55
9225;BME280;4647;48.072;11.616;2023-12-28T01:19:29;95533.00;;;1.93;70.52
9225;BME280;4647;48.072;11.616;2023-12-28T01:21:58;95554.66;;;1.72;71.31
9225;BME280;4647;48.072;11.616;2023-12-28T01:24:26;95544.69;;;1.69;71.22
9225;BME280;4647;48.072;11.616;2023-12-28T01:26:54;95554.66;;;1.57;71.75
9225;BME280;4647;48.072;11.616;2023-12-28T01:29:23;95557.94;;;1.50;72.77
9225;BME280;4647;48.072;11.616;2023-12-28T01:31:51;95565.69;;;1.55;73.31
9225;BME280;4647;48.072;11.616;2023-12-28T01:34:22;95571.25;;;1.34;74.57
9225;BME280;4647;48.072;11.616;2023-12-28T01:36:51;95565.28;;;1.09;73.69
9225;BME280;4647;48.072;11.616;2023-12-28T01:39:19;95578.38;;;1.14;75.01
9225;BME280;4647;48.072;11.616;2023-12-28T01:41:47;95570.63;;;0.81;75.17
9225;BME280;4647;48.072;11.616;2023-12-28T01:44:16;95581.22;;;0.78;75.10
9225;BME280;4647;48.072;11.616;2023-12-28T01:46:44;95580.63;;;0.84;75.32
9225;BME280;4647;48.072;11.616;2023-12-28T01:49:13;95578.28;;;0.83;75.57
9225;BME280;4647;48.072;11.616;2023-12-28T01:51:45;95583.44;;;0.76;75.94
9225;BME280;4647;48.072;11.616;2023-12-28T01:54:14;95592.00;;;0.69;76.00
9225;BME280;4647;48.072;11.616;2023-12-28T01:56:43;95593.47;;;0.67;76.21
9225;BME280;4647;48.072;11.616;2023-12-28T01:59:13;95587.16;;;0.87;75.38
9225;BME280;4647;48.072;11.616;2023-12-28T02:01:41;95588.78;;;0.76;76.08
9225;BME280;4647;48.072;11.616;2023-12-28T02:04:10;95581.66;;;0.80;75.25
9225;BME280;4647;48.072;11.616;2023-12-28T02:06:39;95580.97;;;0.83;74.71
9225;BME280;4647;48.072;11.616;2023-12-28T02:09:10;95578.38;;;0.86;74.81
9225;BME280;4647;48.072;11.616;2023-12-28T02:11:38;95574.34;;;0.92;73.77
9225;BME280;4647;48.072;11.616;2023-12-28T02:14:07;95575.69;;;1.14;72.71
9225;BME280;4647;48.072;11.616;2023-12-28T02:16:39;95579.97;;;1.31;71.70
9225;BME280;4647;48.072;11.616;2023-12-28T02:19:18;95579.13;;;1.43;71.78
9225;BME280;4647;48.072;11.616;2023-12-28T02:21:52;95583.50;;;1.51;70.82
9225;BME280;4647;48.072;11.616;2023-12-28T02:24:25;95584.13;;;1.60;70.55
9225;BME280;4647;48.072;11.616;2023-12-28T02:26:56;95575.25;;;1.72;70.22
9225;BME280;4647;48.072;11.616;2023-12-28T02:29:25;95573.53;;;1.79;70.11
9225;BME280;4647;48.072;11.616;2023-12-28T02:31:58;95583.16;;;1.84;69.87
9225;BME280;4647;48.072;11.616;2023-12-28T02:34:33;95582.47;;;1.87;69.59
9225;BME280;4647;48.072;11.616;2023-12-28T02:37:05;95575.56;;;1.86;69.24
9225;BME280;4647;48.072;11.616;2023-12-28T02:39:34;95571.50;;;2.08;68.49
9225;BME280;4647;48.072;11.616;2023-12-28T02:42:06;95568.72;;;2.20;67.68
9225;BME280;4647;48.072;11.616;2023-12-28T02:44:35;95574.47;;;2.38;66.38
9225;BME280;4647;48.072;11.616;2023-12-28T02:47:03;95571.59;;;2.46;65.83
9225;BME280;4647;48.072;11.616;2023-12-28T02:49:32;95578.88;;;2.65;65.87
9225;BME280;4647;48.072;11.616;2023-12-28T02:52:00;95573.25;;;2.90;64.00
9225;BME280;4647;48.072;11.616;2023-12-28T02:54:29;95579.28;;;3.06;63.54
9225;BME280;4647;48.072;11.616;2023-12-28T02:56:57;95577.09;;;3.12;62.79
9225;BME280;4647;48.072;11.616;2023-12-28T02:59:28;95579.41;;;3.32;61.54
9225;BME280;4647;48.072;11.616;2023-12-28T03:01:56;95583.03;;;3.44;61.46
9225;BME280;4647;48.072;11.616;2023-12-28T03:04:25;95568.56;;;3.48;61.01
9225;BME280;4647;48.072;11.616;2023-12-28T03:06:53;95579.06;;;3.57;60.86
9225;BME280;4647;48.072;11.616;2023-12-28T03:09:22;95573.88;;;3.67;59.83
9225;BME280;4647;48.072;11.616;2023-12-28T03:11:50;95573.81;;;3.87;59.13
9225;BME280;4647;48.072;11.616;2023-12-28T03:14:18;95573.09;;;3.90;59.42
9225;BME280;4647;48.072;11.616;2023-12-28T03:16:50;95577.28;;;3.87;58.91
9225;BME280;4647;48.072;11.616;2023-12-28T03:19:18;95575.53;;;3.76;59.35
9225;BME280;4647;48.072;11.616;2023-12-28T03:21:46;95581.75;;;3.80;59.31
9225;BME280;4647;48.072;11.616;2023-12-28T03:24:15;95577.22;;;3.84;59.56
9225;BME280;4647;48.072;11.616;2023-12-28T03:26:43;95574.84;;;3.79;59.18
9225;BME280;4647;48.072;11.616;2023-12-28T03:29:12;95572.44;;;3.74;59.26
9225;BME280;4647;48.072;11.616;2023-12-28T03:35:23;95588.28;;;3.59;59.73
9225;BME280;4647;48.072;11.616;2023-12-28T03:37:52;95583.00;;;3.63;60.02
9225;BME280;4647;48.072;11.616;2023-12-28T03:40:20;95581.13;;;3.67;60.16
9225;BME280;4647;48.072;11.616;2023-12-28T03:42:48;95572.50;;;3.54;59.89
9225;BME280;4647;48.072;11.616;2023-12-28T03:45:17;95572.31;;;3.89;59.65
9225;BME280;4647;48.072;11.616;2023-12-28T03:47:45;95570.56;;;4.00;59.00
9225;BME280;4647;48.072;11.616;2023-12-28T03:50:14;95573.22;;;3.74;59.80
9225;BME280;4647;48.072;11.616;2023-12-28T03:52:45;95582.56;;;3.61;60.18
9225;BME280;4647;48.072;11.616;2023-12-28T03:55:13;95577.84;;;3.54;60.17
9225;BME280;4647;48.072;11.616;2023-12-28T03:57:42;95582.56;;;3.38;60.25
9225;BME280;4647;48.072;11.616;2023-12-28T04:00:12;95585.94;;;3.35;60.81
9225;BME280;4647;48.072;11.616;2023-12-28T04:02:42;95589.03;;;3.37;60.68
9225;BME280;4647;48.072;11.616;2023-12-28T04:05:10;95582.00;;;3.29;60.53
9225;BME280;4647;48.072;11.616;2023-12-28T04:07:38;95577.06;;;3.31;60.76
9225;BME280;4647;48.072;11.616;2023-12-28T04:10:11;95575.81;;;3.25;61.28
9225;BME280;4647;48.072;11.616;2023-12-28T04:12:39;95562.94;;;3.11;61.65
9225;BME280;4647;48.072;11.616;2023-12-28T04:15:08;95577.03;;;3.08;61.79
9225;BME280;4647;48.072;11.616;2023-12-28T04:17:37;95596.09;;;3.26;61.17
9225;BME280;4647;48.072;11.616;2023-12-28T04:20:07;95597.66;;;3.27;60.54
9225;BME280;4647;48.072;11.616;2023-12-28T04:22:36;95606.56;;;3.77;59.20
9225;BME280;4647;48.072;11.616;2023-12-28T04:25:07;95602.13;;;3.42;59.90
9225;BME280;4647;48.072;11.616;2023-12-28T04:27:38;95595.25;;;3.41;60.67
9225;BME280;4647;48.072;11.616;2023-12-28T04:30:11;95602.13;;;3.42;60.71
9225;BME280;4647;48.072;11.616;2023-12-28T04:32:39;95603.84;;;3.31;61.58
9225;BME280;4647;48.072;11.616;2023-12-28T04:35:08;95599.63;;;3.53;60.82
9225;BME280;4647;48.072;11.616;2023-12-28T04:37:36;95591.69;;;3.56;60.76
9225;BME280;4647;48.072;11.616;2023-12-28T04:40:06;95598.50;;;3.54;60.29
9225;BME280;4647;48.072;11.616;2023-12-28T04:42:34;95612.03;;;3.61;59.94
9225;BME280;4647;48.072;11.616;2023-12-28T04:45:07;95598.09;;;3.52;60.17
9225;BME280;4647;48.072;11.616;2023-12-28T04:47:35;95599.72;;;3.56;60.18
9225;BME280;4647;48.072;11.616;2023-12-28T04:50:05;95605.66;;;3.46;60.25
9225;BME280;4647;48.072;11.616;2023-12-28T04:52:34;95605.34;;;3.51;60.40
9225;BME280;4647;48.072;11.616;2023-12-28T04:55:03;95604.84;;;3.65;60.03
9225;BME280;4647;48.072;11.616;2023-12-28T04:57:32;95613.97;;;3.41;60.48
9225;BME280;4647;48.072;11.616;2023-12-28T05:00:00;95606.25;;;3.36;60.57
9225;BME280;4647;48.072;11.616;2023-12-28T05:02:31;95611.78;;;3.47;60.32
9225;BME280;4647;48.072;11.616;2023-12-28T05:05:00;95610.19;;;3.65;59.71
9225;BME280;4647;48.072;11.616;2023-12-28T05:07:28;95605.56;;;3.62;59.61
9225;BME280;4647;48.072;11.616;2023-12-28T05:09:56;95600.25;;;3.43;60.22
9225;BME280;4647;48.072;11.616;2023-12-28T05:12:25;95608.28;;;3.43;60.18
9225;BME280;4647;48.072;11.616;2023-12-28T05:14:53;95605.06;;;3.33;60.34
9225;BME280;4647;48.072;11.616;2023-12-28T05:17:22;95606.09;;;3.29;60.48
9225;BME280;4647;48.072;11.616;2023-12-28T05:19:53;95607.84;;;3.41;60.07
9225;BME280;4647;48.072;11.616;2023-12-28T05:22:21;95612.19;;;3.49;59.30
9225;BME280;4647;48.072;11.616;2023-12-28T05:24:50;95618.72;;;3.70;58.96
9225;BME280;4647;48.072;11.616;2023-12-28T05:27:18;95618.19;;;3.84;58.58
9225;BME280;4647;48.072;11.616;2023-12-28T05:29:46;95613.97;;;3.83;58.36
9225;BME280;4647;48.072;11.616;2023-12-28T05:32:15;95613.00;;;3.72;58.78
9225;BME280;4647;48.072;11.616;2023-12-28T05:34:43;95619.13;;;3.95;58.52
9225;BME280;4647;48.072;11.616;2023-12-28T05:37:15;95617.16;;;3.69;58.93
9225;BME280;4647;48.072;11.616;2023-12-28T05:39:44;95620.03;;;3.57;59.50
9225;BME280;4647;48.072;11.616;2023-12-28T05:42:12;95620.59;;;3.47;59.34
9225;BME280;4647;48.072;11.616;2023-12-28T05:44:40;95620.41;;;3.36;59.82
9225;BME280;4647;48.072;11.616;2023-12-28T05:47:09;95613.44;;;3.32;59.77
9225;BME280;4647;48.072;11.616;2023-12-28T05:49:38;95612.72;;;3.35;59.54
9225;BME280;4647;48.072;11.616;2023-12-28T05:52:07;95612.06;;;3.42;59.23
9225;BME280;4647;48.072;11.616;2023-12-28T05:54:38;95612.56;;;3.47;59.09
9225;BME280;4647;48.072;11.616;2023-12-28T05:57:08;95615.72;;;3.53;58.67
9225;BME280;4647;48.072;11.616;2023-12-28T05:59:37;95619.59;;;3.55;58.32
9225;BME280;4647;48.072;11.616;2023-12-28T06:02:07;95628.91;;;3.61;57.83
9225;BME280;4647;48.072;11.616;2023-12-28T06:04:35;95623.56;;;4.34;56.00
9225;BME280;4647;48.072;11.616;2023-12-28T06:07:04;95622.63;;;4.22;55.79
9225;BME280;4647;48.072;11.616;2023-12-28T06:09:33;95631.34;;;3.93;56.78
9225;BME280;4647;48.072;11.616;2023-12-28T06:12:05;95623.00;;;3.75;57.52
9225;BME280;4647;48.072;11.616;2023-12-28T06:14:34;95623.75;;;3.76;57.46
9225;BME280;4647;48.072;11.616;2023-12-28T06:17:02;95626.81;;;3.74;57.66
9225;BME280;4647;48.072;11.616;2023-12-28T06:19:31;95625.81;;;3.82;57.08
9225;BME280;4647;48.072;11.616;2023-12-28T06:22:00;95620.50;;;3.86;57.38
9225;BME280;4647;48.072;11.616;2023-12-28T06:24:28;95628.97;;;3.88;57.41
9225;BME280;4647;48.072;11.616;2023-12-28T06:26:56;95624.44;;;3.92;57.00
9225;BME280;4647;48.072;11.616;2023-12-28T06:29:28;95618.72;;;3.93;57.14
9225;BME280;4647;48.072;11.616;2023-12-28T06:31:56;95615.84;;;4.06;56.44
9225;BME280;4647;48.072;11.616;2023-12-28T06:34:24;95622.91;;;4.17;56.66
9225;BME280;4647;48.072;11.616;2023-12-28T06:36:53;95620.66;;;4.19;56.78
9225;BME280;4647;48.072;11.616;2023-12-28T06:39:21;95620.66;;;4.19;56.64
9225;BME280;4647;48.072;11.616;2023-12-28T06:41:50;95621.97;;;4.29;56.13
9225;BME280;4647;48.072;11.616;2023-12-28T06:44:18;95629.56;;;4.50;55.28
9225;BME280;4647;48.072;11.616;2023-12-28T06:46:49;95625.00;;;4.54;55.22
9225;BME280;4647;48.072;11.616;2023-12-28T06:49:18;95623.09;;;4.54;55.37
9225;BME280;4647;48.072;11.616;2023-12-28T06:51:46;95622.47;;;4.65;55.46
9225;BME280;4647;48.072;11.616;2023-12-28T06:54:15;95628.19;;;4.63;55.72
9225;BME280;4647;48.072;11.616;2023-12-28T06:56:43;95625.50;;;4.63;55.54
9225;BME280;4647;48.072;11.616;2023-12-28T06:59:11;95623.59;;;4.63;54.89
9225;BME280;4647;48.072;11.616;2023-12-28T07:01:41;95632.44;;;4.64;54.84
9225;BME280;4647;48.072;11.616;2023-12-28T07:04:12;95633.53;;;4.59;55.12
9225;BME280;4647;48.072;11.616;2023-12-28T07:06:40;95638.13;;;4.59;55.48
9225;BME280;4647;48.072;11.616;2023-12-28T07:09:09;95628.94;;;4.60;55.02
9225;BME280;4647;48.072;11.616;2023-12-28T07:11:37;95624.38;;;4.64;55.06
9225;BME280;4647;48.072;11.616;2023-12-28T07:14:05;95627.16;;;4.71;54.83
9225;BME280;4647;48.072;11.616;2023-12-28T07:16:34;95621.34;;;4.66;54.78
9225;BME280;4647;48.072;11.616;2023-12-28T07:19:02;95630.53;;;4.65;55.16
9225;BME280;4647;48.072;11.616;2023-12-28T07:21:35;95620.50;;;4.61;55.32
9225;BME280;4647;48.072;11.616;2023-12-28T07:24:04;95625.50;;;4.63;55.55
9225;BME280;4647;48.072;11.616;2023-12-28T07:26:32;95620.50;;;4.61;55.02
9225;BME280;4647;48.072;11.616;2023-12-28T07:29:01;95624.78;;;4.66;55.37
9225;BME280;4647;48.072;11.616;2023-12-28T07:31:29;95620.25;;;4.70;55.40
9225;BME280;4647;48.072;11.616;2023-12-28T07:33:58;95625.25;;;4.72;55.12
9225;BME280;4647;48.072;11.616;2023-12-28T07:36:26;95616.13;;;4.76;54.86
9225;BME280;4647;48.072;11.616;2023-12-28T07:38:58;95620.94;;;4.93;54.64
9225;BME280;4647;48.072;11.616;2023-12-28T07:41:26;95619.91;;;5.02;54.58
9225;BME280;4647;48.072;11.616;2023-12-28T07:44:24;95624.28;;;5.17;54.31
9225;BME280;4647;48.072;11.616;2023-12-28T07:46:53;95623.63;;;5.23;54.03
9225;BME280;4647;48.072;11.616;2023-12-28T07:49:22;95624.06;;;5.29;53.84
9225;BME280;4647;48.072;11.616;2023-12-28T07:51:50;95632.19;;;5.36;53.85
9225;BME280;4647;48.072;11.616;2023-12-28T07:54:21;95622.34;;;5.47;53.35
9225;BME280;4647;48.072;11.616;2023-12-28T07:56:49;95625.91;;;5.59;53.05
9225;BME280;4647;48.072;11.616;2023-12-28T07:59:18;95637.56;;;5.70;52.86
9225;BME280;4647;48.072;11.616;2023-12-28T08:01:46;95641.91;;;5.85;52.41
9225;BME280;4647;48.072;11.616;2023-12-28T08:04:15;95644.44;;;6.08;51.81
9225;BME280;4647;48.072;11.616;2023-12-28T08:06:43;95643.00;;;6.69;50.05
9225;BME280;4647;48.072;11.616;2023-12-28T08:09:11;95630.94;;;6.52;50.42
9225;BME280;4647;48.072;11.616;2023-12-28T08:11:42;95638.66;;;6.54;50.80
9225;BME280;4647;48.072;11.616;2023-12-28T08:14:11;95642.22;;;6.68;50.78
9225;BME280;4647;48.072;11.616;2023-12-28T08:16:39;95652.72;;;6.88;50.84
9225;BME280;4647;48.072;11.616;2023-12-28T08:19:08;95648.50;;;6.90;50.95
9225;BME280;4647;48.072;11.616;2023-12-28T08:21:36;95660.63;;;7.28;49.32
9225;BME280;4647;48.072;11.616;2023-12-28T08:24:05;95667.75;;;7.83;47.94
9225;BME280;4647;48.072;11.616;2023-12-28T08:26:34;95668.56;;;8.15;47.14
9225;BME280;4647;48.072;11.616;2023-12-28T08:29:05;95663.91;;;7.84;48.04
9225;BME280;4647;48.072;11.616;2023-12-28T08:31:33;95660.81;;;7.85;49.21
9225;BME280;4647;48.072;11.616;2023-12-28T08:34:02;95670.06;;;7.91;49.18
9225;BME280;4647;48.072;11.616;2023-12-28T08:36:30;95670.06;;;7.98;48.98
9225;BME280;4647;48.072;11.616;2023-12-28T08:38:59;95673.56;;;8.02;48.79
9225;BME280;4647;48.072;11.616;2023-12-28T08:41:29;95668.19;;;8.24;48.33
9225;BME280;4647;48.072;11.616;2023-12-28T08:43:57;95672.88;;;8.34;48.56
9225;BME280;4647;48.072;11.616;2023-12-28T08:46:28;95670.94;;;8.59;48.08
9225;BME280;4647;48.072;11.616;2023-12-28T08:48:57;95674.78;;;8.76;47.32
9225;BME280;4647;48.072;11.616;2023-12-28T08:51:28;95665.47;;;8.91;47.03
9225;BME280;4647;48.072;11.616;2023-12-28T08:53:57;95660.06;;;9.02;47.00
9225;BME280;4647;48.072;11.616;2023-12-28T08:56:25;95661.94;;;9.19;46.64
9225;BME280;4647;48.072;11.616;2023-12-28T08:58:55;95661.56;;;9.25;46.50
9225;BME280;4647;48.072;11.616;2023-12-28T09:01:24;95666.19;;;9.28;46.07
9225;BME280;4647;48.072;11.616;2023-12-28T09:03:58;95666.09;;;9.49;46.03
9225;BME280;4647;48.072;11.616;2023-12-28T09:06:27;95669.19;;;9.47;45.25
9225;BME280;4647;48.072;11.616;2023-12-28T09:08:55;95665.28;;;9.56;45.57
9225;BME280;4647;48.072;11.616;2023-12-28T09:11:24;95664.84;;;9.71;45.49
9225;BME280;4647;48.072;11.616;2023-12-28T09:13:53;95673.94;;;10.02;44.45
9225;BME280;4647;48.072;11.616;2023-12-28T09:16:21;95674.34;;;10.01;44.70
9225;BME280;4647;48.072;11.616;2023-12-28T09:18:50;95673.56;;;10.00;44.83
9225;BME280;4647;48.072;11.616;2023-12-28T09:21:21;95673.56;;;10.04;44.62
9225;BME280;4647;48.072;11.616;2023-12-28T09:23:51;95674.28;;;10.08;44.68
9225;BME280;4647;48.072;11.616;2023-12-28T09:26:21;95672.31;;;10.19;43.87
9225;BME280;4647;48.072;11.616;2023-12-28T09:28:52;95672.66;;;10.28;44.36
9225;BME280;4647;48.072;11.616;2023-12-28T09:31:20;95669.59;;;10.23;44.11
9225;BME280;4647;48.072;11.616;2023-12-28T09:33:49;95670.38;;;10.23;44.46
9225;BME280;4647;48.072;11.616;2023-12-28T09:36:17;95664.72;;;10.52;45.66
9225;BME280;4647;48.072;11.616;2023-12-28T09:38:49;95668.16;;;10.59;44.18
9225;BME280;4647;48.072;11.616;2023-12-28T09:41:19;95669.91;;;10.80;44.13
9225;BME280;4647;48.072;11.616;2023-12-28T09:43:53;95672.94;;;10.89;44.05
9225;BME280;4647;48.072;11.616;2023-12-28T09:46:21;95659.06;;;10.80;44.02
9225;BME280;4647;48.072;11.616;2023-12-28T09:48:52;95654.41;;;10.81;44.03
9225;BME280;4647;48.072;11.616;2023-12-28T09:51:21;95649.72;;;10.85;43.25
9225;BME280;4647;48.072;11.616;2023-12-28T09:53:53;95657.03;;;10.91;43.68
9225;BME280;4647;48.072;11.616;2023-12-28T09:56:22;95651.06;;;11.07;43.21
9225;BME280;4647;48.072;11.616;2023-12-28T09:58:51;95650.84;;;10.87;43.50
9225;BME280;4647;48.072;11.616;2023-12-28T10:01:20;95643.81;;;10.97;43.60
9225;BME280;4647;48.072;11.616;2023-12-28T10:03:49;95634.78;;;11.07;43.05
9225;BME280;4647;48.072;11.616;2023-12-28T10:06:17;95637.97;;;11.36;43.32
9225;BME280;4647;48.072;11.616;2023-12-28T10:08:47;95632.81;;;11.45;42.73
9225;BME280;4647;48.072;11.616;2023-12-28T10:11:25;95640.03;;;11.55;42.53
9225;BME280;4647;48.072;11.616;2023-12-28T10:13:54;95652.88;;;11.51;42.50
9225;BME280;4647;48.072;11.616;2023-12-28T10:16:23;95652.06;;;11.54;42.64
9225;BME280;4647;48.072;11.616;2023-12-28T10:18:51;95639.69;;;11.53;43.05
9225;BME280;4647;48.072;11.616;2023-12-28T10:23:45;95640.88;;;11.83;42.54
9225;BME280;4647;48.072;11.616;2023-12-28T10:26:14;95637.06;;;12.07;42.52
9225;BME280;4647;48.072;11.616;2023-12-28T10:28:45;95641.44;;;12.24;41.88
9225;BME280;4647;48.072;11.616;2023-12-28T10:31:14;95638.03;;;12.20;42.16
9225;BME280;4647;48.072;11.616;2023-12-28T10:33:43;95634.00;;;12.28;42.19
9225;BME280;4647;48.072;11.616;2023-12-28T10:36:14;95636.56;;;12.39;42.10
9225;BME280;4647;48.072;11.616;2023-12-28T10:38:43;95634.50;;;12.47;41.61
9225;BME280;4647;48.072;11.616;2023-12-28T10:41:13;95631.22;;;12.59;41.31
9225;BME280;4647;48.072;11.616;2023-12-28T10:43:54;95626.84;;;12.65;41.21
9225;BME280;4647;48.072;11.616;2023-12-28T10:46:27;95618.03;;;12.81;40.72
9225;BME280;4647;48.072;11.616;2023-12-28T10:48:59;95614.78;;;12.66;40.93
9225;BME280;4647;48.072;11.616;2023-12-28T10:51:28;95610.09;;;12.67;40.59
9225;BME280;4647;48.072;11.616;2023-12-28T10:54:05;95608.97;;;12.87;40.58
9225;BME280;4647;48.072;11.616;2023-12-28T10:56:42;95611.63;;;12.91;40.38
9225;BME280;4647;48.072;11.616;2023-12-28T10:59:23;95614.41;;;12.87;40.00
9225;BME280;4647;48.072;11.616;2023-12-28T11:01:55;95616.06;;;12.81;40.51
9225;BME280;4647;48.072;11.616;2023-12-28T11:04:31;95607.44;;;12.86;40.09
9225;BME280;4647;48.072;11.616;2023-12-28T11:07:03;95607.00;;;12.88;40.29
9225;BME280;4647;48.072;11.616;2023-12-28T11:09:34;95612.69;;;13.17;40.14
9225;BME280;4647;48.072;11.616;2023-12-28T11:12:04;95595.44;;;13.27;40.38
9225;BME280;4647;48.072;11.616;2023-12-28T11:14:39;95593.13;;;13.26;39.97
9225;BME280;4647;48.072;11.616;2023-12-28T11:17:09;95584.44;;;13.11;39.87
9225;BME280;4647;48.072;11.616;2023-12-28T11:19:40;95588.81;;;13.28;39.84
9225;BME280;4647;48.072;11.616;2023-12-28T11:22:10;95592.91;;;13.36;39.49
9225;BME280;4647;48.072;11.616;2023-12-28T11:24:39;95581.22;;;13.56;39.82
9225;BME280;4647;48.072;11.616;2023-12-28T11:27:08;95587.09;;;13.54;40.00
9225;BME280;4647;48.072;11.616;2023-12-28T11:29:41;95591.56;;;13.44;40.95
9225;BME280;4647;48.072;11.616;2023-12-28T11:32:10;95602.41;;;13.28;40.07
9225;BME280;4647;48.072;11.616;2023-12-28T11:34:38;95591.88;;;13.30;40.74
9225;BME280;4647;48.072;11.616;2023-12-28T11:37:08;95592.63;;;13.31;40.40
9225;BME280;4647;48.072;11.616;2023-12-28T11:39:37;95591.22;;;13.23;41.00
9225;BME280;4647;48.072;11.616;2023-12-28T11:42:09;95576.84;;;13.22;40.91
9225;BME280;4647;48.072;11.616;2023-12-28T11:44:41;95586.50;;;13.27;41.62
9225;BME280;4647;48.072;11.616;2023-12-28T11:47:11;95574.56;;;13.20;40.64
9225;BME280;4647;48.072;11.616;2023-12-28T11:49:40;95575.81;;;13.36;41.87
9225;BME280;4647;48.072;11.616;2023-12-28T11:52:22;95575.53;;;13.30;41.20
9225;BME280;4647;48.072;11.616;2023-12-28T11:54:51;95580.69;;;13.25;41.16
9225;BME280;4647;48.072;11.616;2023-12-28T11:57:20;95574.47;;;13.24;40.94
9225;BME280;4647;48.072;11.616;2023-12-28T11:59:56;95570.19;;;13.27;40.83
9225;BME280;4647;48.072;11.616;2023-12-28T12:05:00;95569.41;;;13.26;41.15
9225;BME280;4647;48.072;11.616;2023-12-28T12:07:29;95569.41;;;13.26;40.45
9225;BME280;4647;48.072;11.616;2023-12-28T12:09:58;95574.69;;;13.33;40.78
9225;BME280;4647;48.072;11.616;2023-12-28T12:12:26;95569.75;;;13.28;40.06
9225;BME280;4647;48.072;11.616;2023-12-28T12:14:58;95560.94;;;13.20;41.41
9225;BME280;4647;48.072;11.616;2023-12-28T12:17:26;95564.44;;;13.21;40.99
9225;BME280;4647;48.072;11.616;2023-12-28T12:19:55;95564.56;;;13.14;41.17
9225;BME280;4647;48.072;11.616;2023-12-28T12:22:23;95563.00;;;12.93;41.81
9225;BME280;4647;48.072;11.616;2023-12-28T12:24:53;95555.19;;;12.95;41.47
9225;BME280;4647;48.072;11.616;2023-12-28T12:27:22;95561.06;;;12.94;41.10
9225;BME280;4647;48.072;11.616;2023-12-28T12:29:50;95555.50;;;12.81;41.91
9225;BME280;4647;48.072;11.616;2023-12-28T12:32:24;95558.03;;;12.68;41.68
9225;BME280;4647;48.072;11.616;2023-12-28T12:34:53;95552.75;;;12.61;42.00
9225;BME280;4647;48.072;11.616;2023-12-28T12:37:21;95547.44;;;12.54;42.92
9225;BME280;4647;48.072;11.616;2023-12-28T12:39:52;95546.56;;;12.37;42.90
9225;BME280;4647;48.072;11.616;2023-12-28T12:42:19;95549.06;;;12.48;42.66
9225;BME280;4647;48.072;11.616;2023-12-28T12:44:48;95544.13;;;12.43;42.51
9225;BME280;4647;48.072;11.616;2023-12-28T12:47:16;95551.94;;;12.41;42.68
9225;BME280;4647;48.072;11.616;2023-12-28T12:49:47;95550.75;;;12.18;43.01
9225;BME280;4647;48.072;11.616;2023-12-28T12:52:16;95546.38;;;12.24;42.76
9225;BME280;4647;48.072;11.616;2023-12-28T12:54:52;95544.84;;;12.23;43.71
9225;BME280;4647;48.072;11.616;2023-12-28T12:57:21;95536.16;;;12.32;43.84
9225;BME280;4647;48.072;11.616;2023-12-28T12:59:51;95537.03;;;12.25;43.91
9225;BME280;4647;48.072;11.616;2023-12-28T13:02:24;95536.28;;;12.25;43.86
9225;BME280;4647;48.072;11.616;2023-12-28T13:04:56;95541.63;;;12.28;43.50
9225;BME280;4647;48.072;11.616;2023-12-28T13:07:24;95537.28;;;12.35;44.04
9225;BME280;4647;48.072;11.616;2023-12-28T13:09:52;95540.00;;;12.35;45.22
9225;BME280;4647;48.072;11.616;2023-12-28T13:12:21;95542.72;;;12.35;44.14
9225;BME280;4647;48.072;11.616;2023-12-28T13:14:50;95542.94;;;12.20;44.28
9225;BME280;4647;48.072;11.616;2023-12-28T13:17:18;95539.41;;;12.23;44.84
9225;BME280;4647;48.072;11.616;2023-12-28T13:19:47;95537.09;;;12.22;44.34
9225;BME280;4647;48.072;11.616;2023-12-28T13:22:18;95529.38;;;12.20;44.80
9225;BME280;4647;48.072;11.616;2023-12-28T13:24:46;95533.56;;;12.25;44.96
9225;BME280;4647;48.072;11.616;2023-12-28T13:27:15;95534.78;;;12.20;44.39
9225;BME280;4647;48.072;11.616;2023-12-28T13:29:44;95536.81;;;12.16;44.55
9225;BME280;4647;48.072;11.616;2023-12-28T13:32:12;95541.53;;;12.12;44.86
9225;BME280;4647;48.072;11.616;2023-12-28T13:34:41;95541.81;;;11.94;45.15
9225;BME280;4647;48.072;11.616;2023-12-28T13:37:09;95541.41;;;11.96;45.84
9225;BME280;4647;48.072;11.616;2023-12-28T13:39:40;95544.41;;;12.02;44.99